Brick, New Jersey
Current Conditions -  °F | °C
As of 6:15 AM on Thursday 23 Oct 2014 (Local Time) from KBLM Reporting Station
Overcast Overcast  
Wind Chill: 11°   Ceiling: 1600
Heat Index: 11°   Visibility: 10mi
Dew Point:   Wind: 16mph
Humidity: 76%   Direction: 330°NNW
Pressure: 29.69"   Gusts: 23mph
Location:  40.04°N, 74.12°W
Report Text: KBLM 231015Z AUTO 33014G20KT 10SM BKN016 OVC021 11/07 A2969 RMK AO1
Loading
Personal Weather Stations






























Interactive Weather Map
Tropical Storm Tracking
New forecast layout! Learn more

10-Day Weather Forecast

Advertisements
Track Severe Weather on mobile